地図

経路データ

SID SEASON NUMBER BASIN SUBBASIN NAME ISO_TIME NATURE LAT LON WMO_WIND WMO_PRES WMO_AGENCY TRACK_TYPE DIST2LAND LANDFALL IFLAG USA_AGENCY USA_ATCF_ID USA_LAT USA_LON USA_RECORD USA_STATUS USA_WIND USA_PRES USA_SSHS USA_R34_NE USA_R34_SE USA_R34_SW USA_R34_NW USA_R50_NE USA_R50_SE USA_R50_SW USA_R50_NW USA_R64_NE USA_R64_SE USA_R64_SW USA_R64_NW USA_POCI USA_ROCI USA_RMW USA_EYE TOKYO_LAT TOKYO_LON TOKYO_GRADE TOKYO_WIND TOKYO_PRES TOKYO_R50_DIR TOKYO_R50_LONG TOKYO_R50_SHORT TOKYO_R30_DIR TOKYO_R30_LONG TOKYO_R30_SHORT TOKYO_LAND CMA_LAT CMA_LON CMA_CAT CMA_WIND CMA_PRES HKO_LAT HKO_LON HKO_CAT HKO_WIND HKO_PRES NEWDELHI_LAT NEWDELHI_LON NEWDELHI_GRADE NEWDELHI_WIND NEWDELHI_PRES NEWDELHI_CI NEWDELHI_DP NEWDELHI_POCI REUNION_LAT REUNION_LON REUNION_TYPE REUNION_WIND REUNION_PRES REUNION_TNUM REUNION_CI REUNION_RMW REUNION_R34_NE REUNION_R34_SE REUNION_R34_SW REUNION_R34_NW REUNION_R50_NE REUNION_R50_SE REUNION_R50_SW REUNION_R50_NW REUNION_R64_NE REUNION_R64_SE REUNION_R64_SW REUNION_R64_NW BOM_LAT BOM_LON BOM_TYPE BOM_WIND BOM_PRES BOM_TNUM BOM_CI BOM_RMW BOM_R34_NE BOM_R34_SE BOM_R34_SW BOM_R34_NW BOM_R50_NE BOM_R50_SE BOM_R50_SW BOM_R50_NW BOM_R64_NE BOM_R64_SE BOM_R64_SW BOM_R64_NW BOM_ROCI BOM_POCI BOM_EYE BOM_POS_METHOD BOM_PRES_METHOD NADI_LAT NADI_LON NADI_CAT NADI_WIND NADI_PRES WELLINGTON_LAT WELLINGTON_LON WELLINGTON_WIND WELLINGTON_PRES DS824_LAT DS824_LON DS824_STAGE DS824_WIND DS824_PRES TD9636_LAT TD9636_LON TD9636_STAGE TD9636_WIND TD9636_PRES TD9635_LAT TD9635_LON TD9635_WIND TD9635_PRES TD9635_ROCI NEUMANN_LAT NEUMANN_LON NEUMANN_CLASS NEUMANN_WIND NEUMANN_PRES MLC_LAT MLC_LON MLC_CLASS MLC_WIND MLC_PRES USA_GUST BOM_GUST BOM_GUST_PER REUNION_GUST REUNION_GUST_PER USA_SEAHGT USA_SEARAD_NE USA_SEARAD_SE USA_SEARAD_SW USA_SEARAD_NW STORM_SPEED STORM_DIR
1960282N21132 1960 79 WP MM LOLA 1960-10-08 00:00:00 TS 20.8000 131.600 1000 tokyo main 1010 1005 _OO___________ -1 20.8000 131.600 2 1000 0 0 0 20.8000 131.600 1 29 1000 6 342
1960282N21132 1960 79 WP MM LOLA 1960-10-08 03:00:00 TS 21.1050 131.486 main 1008 1001 _PP___________ -1 21.0950 131.510 2 1000 0 0 21.1150 131.463 1 29 1000 6 339
1960282N21132 1960 79 WP MM LOLA 1960-10-08 06:00:00 TS 21.4000 131.350 1000 tokyo main 998 996 _OO___________ -1 21.4000 131.400 2 1000 0 0 0 21.4000 131.300 1 29 1000 6 332
1960282N21132 1960 79 WP MM LOLA 1960-10-08 09:00:00 TS 21.6724 131.166 main 999 963 _PP___________ -1 21.7149 131.245 2 1000 0 0 21.6299 131.087 1 29 1000 6 316
1960282N21132 1960 79 WP MM LOLA 1960-10-08 12:00:00 TS 21.8667 130.867 1000 tokyo main 963 921 OOO______OOO__ jtwc_wp WP231960 21.8000 130.800 35 0 22.0000 131.000 2 1000 0 0 0 21.8000 130.800 1 29 1000 21.8000 130.800 TC 35 21.8000 130.800 2 35 21.8000 130.800 35 1002 180 7 298
1960282N21132 1960 79 WP MM LOLA 1960-10-08 15:00:00 TS 22.0172 130.454 main 921 878 PPP______PPP__ WP231960 21.9678 130.370 35 0 22.2226 130.630 2 1000 0 0 21.9302 130.400 1 29 1000 21.9678 130.370 TC 35 21.9286 130.465 2 35 21.9678 130.370 35 1002 180 8 290
1960282N21132 1960 79 WP MM LOLA 1960-10-08 18:00:00 TS 22.1318 130.060 1000 tokyo main 878 845 OOO______OPO__ jtwc_wp WP231960 22.1000 130.000 35 0 22.4000 130.200 2 1000 0 0 0 22.0000 130.000 1 29 1000 22.1000 130.000 TC 35 22.0455 130.133 2 35 22.1000 130.000 35 1002 180 7 287
1960282N21132 1960 79 WP MM LOLA 1960-10-08 21:00:00 TS 22.2148 129.747 main 836 816 PPP______PPP__ WP231960 22.1723 129.727 35 0 22.6100 129.778 2 1000 0 0 22.0224 129.712 1 29 1000 22.1723 129.727 TC 35 22.1397 129.810 2 35 22.1723 129.727 35 1002 150 5 282
1960282N21132 1960 79 WP MM LOLA 1960-10-09 00:00:00 TS 22.2500 129.483 1000 tokyo main 813 787 OOO______OOO__ jtwc_wp WP231960 22.2000 129.500 35 0 22.7000 129.400 2 1000 0 0 0 22.0000 129.500 1 29 1000 22.2000 129.500 TC 35 22.2000 129.500 2 35 22.2000 129.500 35 1002 120 5 272
1960282N21132 1960 79 WP MM LOLA 1960-10-09 03:00:00 TS 22.2337 129.227 main 787 768 PPP______PPP__ WP231960 22.2225 129.243 35 0 22.5524 129.097 2 1000 0 0 21.9650 129.327 1 33 1000 22.2225 129.243 TC 35 22.2174 129.209 2 35 22.2225 129.243 35 1002 150 4 259
1960282N21132 1960 79 WP MM LOLA 1960-10-09 06:00:00 TS 22.1650 129.009 1000 tokyo main 768 753 OOO______OPO__ jtwc_wp WP231960 22.2000 129.000 35 0 22.3000 128.900 2 1000 0 0 0 21.9000 129.200 2 38 1000 22.2000 129.000 TC 35 22.1899 128.952 2 35 22.2000 129.000 35 1002 180 4 245
1960282N21132 1960 79 WP MM LOLA 1960-10-09 09:00:00 TS 22.0654 128.828 main 753 748 PPP______PPP__ WP231960 22.1225 128.777 35 0 22.0999 128.805 2 1001 0 0 21.8075 129.085 2 38 1000 22.1225 128.777 TC 35 22.1175 128.744 2 35 22.1225 128.777 35 1002 180 4 231
1960282N21132 1960 79 WP MM LOLA 1960-10-09 12:00:00 TS 21.9333 128.700 1002 tokyo main 752 743 OOO______OOO__ jtwc_wp WP231960 22.0000 128.600 35 0 21.9000 128.800 2 1002 0 0 0 21.7000 129.000 2 38 1000 22.0000 128.600 TC 35 22.0000 128.600 2 35 22.0000 128.600 35 1003 180 3 216
1960282N21132 1960 79 WP MM LOLA 1960-10-09 15:00:00 TS 21.7968 128.614 main 748 748 PPP______PPP__ WP231960 21.8725 128.455 35 0 21.6925 128.850 2 1001 0 0 21.6075 128.943 2 38 1000 21.8725 128.455 TC 35 21.8632 128.527 2 35 21.8725 128.455 35 1003 210 3 200
1960282N21132 1960 79 WP MM LOLA 1960-10-09 18:00:00 TS 21.6304 128.586 1000 tokyo main 749 739 OOO______OPO__ jtwc_wp WP231960 21.7000 128.400 35 0 21.5000 128.900 2 1000 0 0 0 21.5000 128.900 2 38 1000 21.7000 128.400 TC 35 21.6823 128.518 2 36 21.7000 128.400 35 1004 240 4 0
1960282N21132 1960 79 WP MM LOLA 1960-10-09 21:00:00 TS 21.4296 128.622 main 739 734 PPP______PPP__ WP231960 21.4725 128.470 37 0 21.3424 128.895 2 1000 0 0 21.3574 128.880 2 38 999 21.4725 128.470 TC 37 21.4602 128.549 2 37 21.4725 128.470 36 1004 270 4 170
1960282N21132 1960 79 WP MM LOLA 1960-10-10 00:00:00 TS 21.2000 128.667 1000 tokyo main 739 730 OOO______OOO__ jtwc_wp WP231960 21.2000 128.600 40 0 21.2000 128.800 2 1000 0 0 0 21.2000 128.800 2 38 998 21.2000 128.600 TC 40 21.2000 128.600 2 38 21.2000 128.600 38 1005 300 5 175
1960282N21132 1960 79 WP MM LOLA 1960-10-10 03:00:00 TS 20.9784 128.666 main 730 708 PPP______PPP__ WP231960 20.9150 128.715 40 0 21.0951 128.573 2 999 0 0 21.0951 128.558 2 38 998 20.9150 128.715 TC 40 20.9350 128.718 2 38 20.9150 128.715 39 1005 300 5 0
1960282N21132 1960 79 WP MM LOLA 1960-10-10 06:00:00 TS 20.7053 128.640 998 tokyo main 708 697 OOO______OPO__ jtwc_wp WP231960 20.6000 128.800 40 0 20.9000 128.300 9 998 0 0 0 20.9000 128.300 2 38 998 20.6000 128.800 TC 40 20.6318 128.837 2 39 20.6000 128.800 40 1006 300 6 185
1960282N21132 1960 79 WP MM LOLA 1960-10-10 09:00:00 TS 20.3629 128.607 main 697 675 PPP______PPP__ WP231960 20.2799 128.853 40 0 20.5250 128.055 9 998 0 0 20.5249 128.140 2 38 998 20.2799 128.853 TC 40 20.2877 128.888 2 39 20.2799 128.853 40 1005 300 8 187
1960282N21132 1960 79 WP MM LOLA 1960-10-10 12:00:00 TS 19.9333 128.533 998 tokyo main 672 651 OOO______OOO__ jtwc_wp WP231960 19.9000 128.800 40 0 20.0000 127.900 9 998 0 0 0 20.0000 128.100 2 38 998 19.9000 128.800 TC 40 19.9000 128.800 2 40 19.9000 128.800 40 1004 300 10 190
1960282N21132 1960 79 WP MM LOLA 1960-10-10 15:00:00 TS 19.4180 128.432 main 651 624 PPP______PPP__ WP231960 19.4147 128.648 42 0 19.4099 127.920 9 996 0 0 19.3726 128.266 2 38 997 19.4147 128.648 TC 42 19.4813 128.464 2 43 19.4147 128.648 42 1002 300 11 195
1960282N21132 1960 79 WP MM LOLA 1960-10-10 18:00:00 TS 18.8532 128.216 995 tokyo main 624 580 OOO______OPO__ jtwc_wp WP231960 18.9000 128.300 45 0 18.7000 128.000 9 995 0 0 0 18.7000 128.400 2 38 996 18.9000 128.300 TC 45 19.0190 127.995 2 47 18.9000 128.300 45 1001 300 13 208
1960282N21132 1960 79 WP MM LOLA 1960-10-10 21:00:00 TS 18.3039 127.809 main 580 527 PPP______PPP__ WP231960 18.4807 127.657 50 0 17.7897 128.106 9 992 0 0 18.0698 128.297 2 43 995 18.4807 127.657 TC 50 18.5220 127.479 2 51 18.4807 127.657 50 1000 270 14 217
1960282N21132 1960 79 WP MM LOLA 1960-10-11 00:00:00 TS 17.7500 127.333 990 tokyo main 517 453 OOO______OOO__ jtwc_wp WP231960 18.0000 127.000 55 0 17.0000 128.000 9 990 0 0 0 17.5000 128.000 3 48 995 18.0000 127.000 TC 55 18.0000 127.000 2 55 18.0000 127.000 55 1000 240 14 216
1960282N21132 1960 79 WP MM LOLA 1960-10-11 03:00:00 TS 17.1505 126.919 main 453 381 PPP______PPP__ WP231960 17.2922 126.640 60 0 16.6233 127.395 9 987 0 0 17.0052 127.537 3 53 990 17.2922 126.640 TC 60 17.3981 126.659 2 60 17.2922 126.640 60 1000 240 14 214
1960282N21132 1960 79 WP MM LOLA 1960-10-11 06:00:00 TS 16.6145 126.545 985 tokyo main 374 319 OOO______OPO__ jtwc_wp WP231960 16.6000 126.400 65 1 16.5000 126.700 9 985 0 0 0 16.6000 127.000 3 58 985 16.6000 126.400 TC 65 16.7872 126.368 2 65 16.6000 126.400 65 1001 240 12 216
1960282N21132 1960 79 WP MM LOLA 1960-10-11 09:00:00 TS 16.2183 126.223 main 319 288 PPP______PPP__ WP231960 16.1100 126.128 70 1 16.4922 126.333 9 985 0 0 16.2551 126.505 3 63 984 16.1100 126.128 TC 70 16.2326 126.118 2 70 16.1100 126.128 70 998 240 9 220
1960282N21132 1960 79 WP MM LOLA 1960-10-11 12:00:00 TS 15.9500 125.967 985 tokyo main 288 258 OOO______OOO__ jtwc_wp WP231960 15.8000 125.900 75 1 16.5000 126.100 9 985 0 0 0 16.0000 126.100 4 68 984 15.8000 125.900 TC 75 15.8000 125.900 3 75 15.8000 125.900 75 996 240 6 224
1960282N21132 1960 79 WP MM LOLA 1960-10-11 15:00:00 TS 15.7813 125.781 main 258 236 PPP______PPP__ WP231960 15.6549 125.743 77 1 16.3374 125.885 9 982 0 0 15.8273 125.863 4 68 982 15.6549 125.743 TC 77 15.5582 125.709 3 76 15.6549 125.743 77 992 240 4 230
1960282N21132 1960 79 WP MM LOLA 1960-10-11 18:00:00 TS 15.6737 125.624 980 tokyo main 236 214 OOO______OPO__ jtwc_wp WP231960 15.6000 125.600 80 1 16.1000 125.700 9 980 0 0 0 15.7000 125.700 4 68 980 15.6000 125.600 TC 80 15.4422 125.544 3 77 15.6000 125.600 80 988 240 4 235
1960282N21132 1960 79 WP MM LOLA 1960-10-11 21:00:00 TS 15.5446 125.434 main 205 184 PPP______PPP__ WP231960 15.4925 125.407 80 1 15.8500 125.492 9 977 0 0 15.5350 125.507 4 68 978 15.4925 125.407 TC 80 15.4051 125.381 3 78 15.4925 125.407 80 984 240 4 237
1960282N21132 1960 79 WP MM LOLA 1960-10-12 00:00:00 TS 15.4333 125.233 975 tokyo main 184 169 OOO______OOO__ jtwc_wp WP231960 15.4000 125.200 80 1 15.6000 125.300 9 975 0 0 0 15.4000 125.300 4 68 977 15.4000 125.200 TC 80 15.4000 125.200 4 80 15.4000 125.200 80 980 240 4 241
1960282N21132 1960 79 WP MM LOLA 1960-10-12 03:00:00 TS 15.3367 125.039 main 163 155 PPP______PPP__ WP231960 15.3349 125.015 80 1 15.3549 125.165 9 972 0 0 15.3275 125.058 4 72 973 15.3349 125.015 TC 80 15.3332 124.967 4 80 15.3349 125.015 80 980 240 4 249
1960282N21132 1960 79 WP MM LOLA 1960-10-12 06:00:00 TS 15.2817 124.819 970 tokyo main 155 149 OOO______OPO__ jtwc_wp WP231960 15.3000 124.800 80 1 15.2000 125.000 9 970 0 0 0 15.3000 124.800 4 77 970 15.3000 124.800 TC 80 15.2901 124.715 4 80 15.3000 124.800 80 980 240 5 261
1960282N21132 1960 79 WP MM LOLA 1960-10-12 09:00:00 TS 15.2641 124.538 main 147 145 PPP______PPP__ WP231960 15.2776 124.500 80 1 15.1975 124.723 9 972 0 0 15.2775 124.550 4 77 973 15.2776 124.500 TC 80 15.2769 124.455 4 80 15.2776 124.500 80 981 240 5 272
1960282N21132 1960 79 WP MM LOLA 1960-10-12 12:00:00 TS 15.3000 124.250 975 tokyo main 145 145 OOO______OOO__ jtwc_wp WP231960 15.3000 124.200 80 1 15.3000 124.400 9 975 0 0 0 15.3000 124.300 4 77 977 15.3000 124.200 TC 80 15.3000 124.200 4 80 15.3000 124.200 80 982 240 5 285
1960282N21132 1960 79 WP MM LOLA 1960-10-12 15:00:00 TS 15.3962 124.028 main 157 157 PPP______PPP__ WP231960 15.3849 123.993 77 1 15.4500 124.093 9 977 0 0 15.3850 124.050 4 77 981 15.3849 123.993 TC 77 15.3874 124.049 4 78 15.3849 123.993 77 983 270 5 297
1960282N21132 1960 79 WP MM LOLA 1960-10-12 18:00:00 TS 15.5176 123.815 980 tokyo main 170 164 OOO______OPO__ jtwc_wp WP231960 15.5000 123.800 75 1 15.6000 123.800 9 980 0 0 0 15.5000 123.800 4 77 985 15.5000 123.800 TC 75 15.5057 123.893 4 77 15.5000 123.800 75 984 300 5 298
1960282N21132 1960 79 WP MM LOLA 1960-10-12 21:00:00 TS 15.6192 123.602 main 164 130 PPP______PPP__ WP231960 15.6072 123.610 75 1 15.6649 123.550 9 982 0 0 15.6074 123.565 4 72 987 15.6072 123.610 TC 75 15.6213 123.665 4 76 15.6072 123.610 75 984 300 5 290
1960282N21132 1960 79 WP MM LOLA 1960-10-13 00:00:00 TS 15.7000 123.300 985 tokyo main 130 87 OOO______OOO__ jtwc_wp WP231960 15.7000 123.300 75 1 15.7000 123.300 9 985 0 0 0 15.7000 123.300 4 68 990 15.7000 123.300 TC 75 15.7000 123.300 4 75 15.7000 123.300 75 984 300 8 281
1960282N21132 1960 79 WP MM LOLA 1960-10-13 03:00:00 TS 15.7574 122.832 main 78 39 PPP______PPP__ WP231960 15.7873 122.790 72 1 15.7500 123.007 9 987 0 0 15.7575 122.972 4 68 990 15.7873 122.790 TC 72 15.6752 122.641 4 71 15.7873 122.790 71 982 300 10 274
1960282N21132 1960 79 WP MM LOLA 1960-10-13 06:00:00 TS 15.7685 122.243 990 tokyo main 30 0 OOO______OPO__ jtwc_wp WP231960 15.8000 122.100 70 1 15.8000 122.700 9 990 0 0 0 15.8000 122.600 4 68 990 15.8000 122.100 TC 70 15.6110 121.856 4 67 15.8000 122.100 68 981 300 12 267
1960282N21132 1960 79 WP MM LOLA 1960-10-13 09:00:00 TS 15.7001 121.552 main 0 0 PPP______PPP__ WP231960 15.6584 121.189 65 1 15.8348 122.437 9 990 0 0 15.8498 122.237 4 68 990 15.6584 121.189 TC 65 15.5409 121.069 4 63 15.6584 121.189 64 983 330 13 264
1960282N21132 1960 79 WP MM LOLA 1960-10-13 12:00:00 TS 15.6333 120.917 990 tokyo main 0 0 OOO______OOO__ jtwc_wp WP231960 15.5000 120.400 60 0 15.9000 122.100 9 990 0 0 0 15.9000 121.800 4 68 990 15.5000 120.400 TC 60 15.5000 120.400 2 60 15.5000 120.400 60 986 360 10 267
1960282N21132 1960 79 WP MM LOLA 1960-10-13 15:00:00 TS 15.6459 120.547 main 0 0 PPP______PPP__ WP231960 15.4544 120.118 60 0 16.0498 121.618 9 990 0 0 15.9498 121.252 4 68 992 15.4544 120.118 TC 60 15.5128 120.058 2 61 15.4544 120.118 61 988 330 7 277
1960282N21132 1960 79 WP MM LOLA 1960-10-13 18:00:00 TS 15.7108 120.240 990 tokyo main 0 0 OOO______OPO__ jtwc_wp WP231960 15.5000 120.000 60 0 16.2000 121.000 9 990 0 0 0 16.0000 120.600 4 68 995 15.5000 120.000 TC 60 15.5651 119.840 2 62 15.5000 120.000 62 990 300 7 283
1960282N21132 1960 79 WP MM LOLA 1960-10-13 21:00:00 TS 15.8083 119.829 main 10 10 PPP______PPP__ WP231960 15.6199 119.737 62 0 16.2802 120.265 9 990 0 0 16.0502 119.843 4 68 995 15.6199 119.737 TC 62 15.6599 119.651 2 63 15.6199 119.737 63 992 270 9 285
1960282N21132 1960 79 WP MM LOLA 1960-10-14 00:00:00 TS 15.9333 119.367 990 tokyo main 33 33 OOO______OOO__ jtwc_wp WP231960 15.8000 119.400 65 1 16.3000 119.500 9 990 0 0 0 16.1000 119.100 4 68 995 15.8000 119.400 TC 65 15.8000 119.400 3 65 15.8000 119.400 65 994 240 9 286
1960282N21132 1960 79 WP MM LOLA 1960-10-14 03:00:00 TS 16.0665 118.888 main 86 86 PPP______PPP__ WP231960 15.9849 118.995 65 1 16.2572 118.835 9 990 0 0 16.1571 118.520 4 68 995 15.9849 118.995 TC 65 16.0304 118.988 3 65 15.9849 118.995 65 996 240 10 286
1960282N21132 1960 79 WP MM LOLA 1960-10-14 06:00:00 TS 16.2157 118.366 990 tokyo main 140 140 OOO______OPO__ jtwc_wp WP231960 16.2000 118.500 65 1 16.2000 118.200 9 990 0 0 0 16.2000 118.000 4 68 995 16.2000 118.500 TC 65 16.2944 118.494 3 66 16.2000 118.500 65 999 240 11 287
1960282N21132 1960 79 WP MM LOLA 1960-10-14 09:00:00 TS 16.3959 117.790 main 207 207 PPP______PPP__ WP231960 16.4799 117.938 67 1 16.1924 117.543 9 992 0 0 16.2073 117.457 4 68 995 16.4799 117.938 TC 67 16.5363 117.929 3 67 16.4799 117.938 66 998 240 12 285
1960282N21132 1960 79 WP MM LOLA 1960-10-14 12:00:00 TS 16.5333 117.167 995 tokyo main 272 272 OOO______OOO__ jtwc_wp WP231960 16.7000 117.300 70 1 16.2000 116.900 9 995 0 0 0 16.2000 116.900 4 68 995 16.7000 117.300 TC 70 16.7000 117.300 4 68 16.7000 117.300 68 998 240 12 278
1960282N21132 1960 79 WP MM LOLA 1960-10-14 15:00:00 TS 16.5618 116.514 main 348 348 PPP______PPP__ WP231960 16.7598 116.622 70 1 16.1996 116.308 9 995 0 0 16.1998 116.322 4 68 995 16.7598 116.622 TC 70 16.6920 116.586 4 68 16.7598 116.622 69 996 240 13 269
1960282N21132 1960 79 WP MM LOLA 1960-10-14 18:00:00 TS 16.5174 115.821 995 tokyo main 420 420 OOO______OPO__ jtwc_wp WP231960 16.7000 115.900 70 1 16.2000 115.700 9 995 0 0 0 16.2000 115.700 4 68 995 16.7000 115.900 TC 70 16.6041 115.825 4 69 16.7000 115.900 70 994 240 14 264
1960282N21132 1960 79 WP MM LOLA 1960-10-14 21:00:00 TS 16.4120 115.073 main 493 493 PPP______PPP__ WP231960 16.5501 115.127 70 1 16.1701 114.992 9 995 0 0 16.1627 114.985 4 68 995 16.5501 115.127 TC 70 16.4889 115.077 4 69 16.5501 115.127 70 992 240 14 262
1960282N21132 1960 79 WP MM LOLA 1960-10-15 00:00:00 TS 16.3333 114.367 995 tokyo main 499 440 OOO______OOO__ jtwc_wp WP231960 16.4000 114.400 70 1 16.2000 114.300 9 995 0 0 0 16.2000 114.300 4 68 995 16.4000 114.400 TC 70 16.4000 114.400 4 70 16.4000 114.400 70 991 240 12 269
1960282N21132 1960 79 WP MM LOLA 1960-10-15 03:00:00 TS 16.3807 113.786 main 440 392 PPP______PPP__ WP231960 16.3623 113.790 70 1 16.3697 113.728 9 995 0 0 16.4272 113.755 4 68 995 16.3623 113.790 TC 70 16.4006 113.863 4 67 16.3623 113.790 70 993 240 10 279
1960282N21132 1960 79 WP MM LOLA 1960-10-15 06:00:00 TS 16.4898 113.300 995 tokyo main 392 353 OOO______OPO__ jtwc_wp WP231960 16.4000 113.300 70 1 16.6000 113.200 9 995 0 0 0 16.7000 113.300 4 68 995 16.4000 113.300 TC 70 16.4385 113.403 4 65 16.4000 113.300 70 996 240 9 285
1960282N21132 1960 79 WP MM LOLA 1960-10-15 09:00:00 TS 16.6081 112.884 main 353 315 PPP______PPP__ WP231960 16.4848 112.920 65 1 16.8149 112.650 9 995 0 0 16.8722 112.900 4 68 995 16.4848 112.920 TC 65 16.5072 112.991 4 62 16.4848 112.920 65 996 240 8 288
1960282N21132 1960 79 WP MM LOLA 1960-10-15 12:00:00 TS 16.7333 112.500 995 tokyo main 315 278 OOO______OOO__ jtwc_wp WP231960 16.6000 112.600 60 0 17.0000 112.100 9 995 0 0 0 17.0000 112.500 4 68 995 16.6000 112.600 TC 60 16.6000 112.600 2 60 16.6000 112.600 60 997 240 8 287
1960282N21132 1960 79 WP MM LOLA 1960-10-15 15:00:00 TS 16.8361 112.091 main 278 243 PPP______PPP__ WP231960 16.6924 112.265 55 0 17.1300 111.527 9 995 0 0 17.1149 112.022 4 68 995 16.6924 112.265 TC 55 16.6947 112.202 2 55 16.6924 112.265 55 997 240 8 284
1960282N21132 1960 79 WP MM LOLA 1960-10-15 18:00:00 TS 16.9353 111.669 995 tokyo main 243 208 OOO______OPO__ jtwc_wp WP231960 16.8000 111.900 50 0 17.2000 111.000 9 995 0 0 0 17.2000 111.500 4 68 995 16.8000 111.900 TC 50 16.8116 111.815 2 50 16.8000 111.900 50 998 240 9 284
1960282N21132 1960 79 WP MM LOLA 1960-10-15 21:00:00 TS 17.0362 111.226 main 201 168 PPP______PPP__ WP231960 16.9349 111.472 45 0 17.2148 110.577 9 995 0 0 17.2500 110.942 4 63 995 16.9349 111.472 TC 45 16.9478 111.420 2 45 16.9349 111.472 45 998 210 9 284
1960282N21132 1960 79 WP MM LOLA 1960-10-16 00:00:00 TS 17.1500 110.767 996 tokyo main 158 119 OOO______OOO__ jtwc_wp WP231960 17.1000 111.000 40 0 17.2000 110.200 9 996 0 0 0 17.3000 110.400 3 58 996 17.1000 111.000 TC 40 17.1000 111.000 2 40 17.1000 111.000 40 998 180 9 286
1960282N21132 1960 79 WP MM LOLA 1960-10-16 03:00:00 TS 17.2927 110.305 main 119 91 PPP______PPP__ WP231960 17.2999 110.508 37 0 17.1998 109.815 9 996 0 0 17.3922 109.942 3 58 996 17.2999 110.508 TC 37 17.2643 110.549 2 38 17.2999 110.508 37 998 180 9 288
1960282N21132 1960 79 WP MM LOLA 1960-10-16 06:00:00 TS 17.4403 109.828 996 tokyo main 90 67 OOO______OPO__ jtwc_wp WP231960 17.5000 110.000 35 0 17.2000 109.400 9 996 0 0 0 17.5000 109.500 3 58 996 17.5000 110.000 TC 35 17.4418 110.067 2 37 17.5000 110.000 35 999 180 10 286
1960282N21132 1960 79 WP MM LOLA 1960-10-16 09:00:00 TS 17.5608 109.340 main 70 70 PPP______PPP__ WP231960 17.6497 109.522 35 0 17.2075 108.915 9 998 0 0 17.5849 109.007 3 48 998 17.6497 109.522 TC 35 17.6235 109.552 2 36 17.6497 109.522 35 999 150 10 284
1960282N21132 1960 79 WP MM LOLA 1960-10-16 12:00:00 TS 17.6833 108.817 1000 tokyo main 81 81 OOO______OOO__ jtwc_wp WP231960 17.8000 109.000 35 0 17.2000 108.400 9 1000 0 0 0 17.7000 108.500 2 38 1000 17.8000 109.000 TC 35 17.8000 109.000 2 35 17.8000 109.000 35 1000 120 11 285
1960282N21132 1960 79 WP MM LOLA 1960-10-16 15:00:00 TS 17.8370 108.229 main 94 85 PPP______PPP__ WP231960 18.0076 108.365 35 0 17.1576 107.855 9 1003 0 0 17.8773 108.015 2 38 1001 18.0076 108.365 TC 35 17.9642 108.410 2 34 18.0076 108.365 35 1000 120 12 287
1960282N21132 1960 79 WP MM LOLA 1960-10-16 18:00:00 TS 18.0205 107.635 1006 tokyo main 113 71 OOO______OPO__ jtwc_wp WP231960 18.2000 107.700 35 0 17.1000 107.400 2 1006 0 0 0 18.1000 107.500 2 38 1002 18.2000 107.700 TC 35 18.1169 107.791 2 33 18.2000 107.700 35 1001 120 12 288
1960282N21132 1960 79 WP MM LOLA 1960-10-16 21:00:00 TS 18.1882 107.070 main 71 23 PPP______PPP__ WP231960 18.3147 107.100 32 -1 17.0474 107.140 2 1007 0 0 18.3425 106.907 2 33 1003 18.3147 107.100 TC 32 18.2612 107.151 2 32 18.3147 107.100 33 1001 120 11 287
1960282N21132 1960 79 WP MM LOLA 1960-10-17 00:00:00 TS 18.3429 106.493 1008 tokyo main 23 0 OOO______OOO__ jtwc_wp WP231960 18.4000 106.500 30 -1 17.0000 107.000 2 1008 0 0 0 18.6000 106.300 1 29 1005 18.4000 106.500 TC 30 18.4000 106.500 1 32 18.4000 106.500 32 1001 120 12 289
1960282N21132 1960 79 WP MM LOLA 1960-10-17 03:00:00 TS 18.5848 105.831 main 0 0 P_P______P_P__ WP231960 18.4956 105.863 30 -1 2 0 0 18.8527 105.735 1 24 1006 18.4956 105.863 TC 30 1 18.4956 105.863 31 1001 120 13 287
1960282N21132 1960 79 WP MM LOLA 1960-10-17 06:00:00 TS 18.7250 105.200 main 0 O_O______O_O__ jtwc_wp WP231960 18.6000 105.200 30 -1 19.1000 105.200 0 19 1007 18.6000 105.200 TC 30 1 18.6000 105.200 30 1002 120 12 283

デジタル台風データ・検索

IBTrACS Databaseについて

本データベースは、米国NOAAが公開する1842年以降の世界の熱帯低気圧のベストトラックデータアーカイブInternational Best Track Archive for Climate Stewardship (IBTrACS)を、ウェブで閲覧しやすい形式に変換したものです。

最終更新日:2021-12-01